sensor_id;sensor_type;location;lat;lon;timestamp;P1;durP1;ratioP1;P2;durP2;ratioP2
31128;SDS011;17777;48.770;8.944;2023-05-10T00:00:24;0.73;;;0.20;;
31128;SDS011;17777;48.770;8.944;2023-05-10T00:02:50;0.22;;;0.20;;
31128;SDS011;17777;48.770;8.944;2023-05-10T00:05:16;0.25;;;0.20;;
31128;SDS011;17777;48.770;8.944;2023-05-10T00:07:42;0.35;;;0.32;;
31128;SDS011;17777;48.770;8.944;2023-05-10T00:10:10;0.15;;;0.15;;
31128;SDS011;17777;48.770;8.944;2023-05-10T00:12:36;0.10;;;0.10;;
31128;SDS011;17777;48.770;8.944;2023-05-10T00:15:02;0.20;;;0.20;;
31128;SDS011;17777;48.770;8.944;2023-05-10T00:17:28;0.20;;;0.20;;
31128;SDS011;17777;48.770;8.944;2023-05-10T00:19:54;0.10;;;0.10;;
31128;SDS011;17777;48.770;8.944;2023-05-10T00:22:20;0.10;;;0.10;;
31128;SDS011;17777;48.770;8.944;2023-05-10T00:24:46;0.10;;;0.10;;
31128;SDS011;17777;48.770;8.944;2023-05-10T00:27:12;0.10;;;0.10;;
31128;SDS011;17777;48.770;8.944;2023-05-10T00:29:38;0.10;;;0.10;;
31128;SDS011;17777;48.770;8.944;2023-05-10T00:32:04;0.10;;;0.10;;
31128;SDS011;17777;48.770;8.944;2023-05-10T00:34:30;0.10;;;0.10;;
31128;SDS011;17777;48.770;8.944;2023-05-10T00:36:56;0.10;;;0.10;;
31128;SDS011;17777;48.770;8.944;2023-05-10T00:39:22;0.35;;;0.10;;
31128;SDS011;17777;48.770;8.944;2023-05-10T00:41:48;2.17;;;0.10;;
31128;SDS011;17777;48.770;8.944;2023-05-10T00:44:15;0.10;;;0.10;;
31128;SDS011;17777;48.770;8.944;2023-05-10T00:46:41;0.65;;;0.25;;
31128;SDS011;17777;48.770;8.944;2023-05-10T00:49:07;0.10;;;0.10;;
31128;SDS011;17777;48.770;8.944;2023-05-10T00:51:32;0.08;;;0.08;;
31128;SDS011;17777;48.770;8.944;2023-05-10T00:53:58;0.08;;;0.08;;
31128;SDS011;17777;48.770;8.944;2023-05-10T00:56:25;0.10;;;0.10;;
31128;SDS011;17777;48.770;8.944;2023-05-10T00:58:51;0.35;;;0.08;;
31128;SDS011;17777;48.770;8.944;2023-05-10T01:01:17;0.10;;;0.10;;
31128;SDS011;17777;48.770;8.944;2023-05-10T01:03:44;0.20;;;0.10;;
31128;SDS011;17777;48.770;8.944;2023-05-10T01:06:12;0.10;;;0.10;;
31128;SDS011;17777;48.770;8.944;2023-05-10T01:08:38;0.10;;;0.10;;
31128;SDS011;17777;48.770;8.944;2023-05-10T01:11:04;0.10;;;0.10;;
31128;SDS011;17777;48.770;8.944;2023-05-10T01:16:02;0.05;;;0.05;;
31128;SDS011;17777;48.770;8.944;2023-05-10T01:18:36;0.65;;;0.10;;
31128;SDS011;17777;48.770;8.944;2023-05-10T01:24:03;0.30;;;0.20;;
31128;SDS011;17777;48.770;8.944;2023-05-10T01:39:06;0.17;;;0.10;;
31128;SDS011;17777;48.770;8.944;2023-05-10T01:42:09;0.10;;;0.10;;
31128;SDS011;17777;48.770;8.944;2023-05-10T01:47:26;0.17;;;0.17;;
31128;SDS011;17777;48.770;8.944;2023-05-10T01:50:10;0.10;;;0.10;;
31128;SDS011;17777;48.770;8.944;2023-05-10T01:52:42;0.10;;;0.10;;
31128;SDS011;17777;48.770;8.944;2023-05-10T01:55:15;0.10;;;0.10;;
31128;SDS011;17777;48.770;8.944;2023-05-10T01:57:43;0.10;;;0.10;;
31128;SDS011;17777;48.770;8.944;2023-05-10T02:00:11;0.10;;;0.10;;
31128;SDS011;17777;48.770;8.944;2023-05-10T02:02:40;0.10;;;0.10;;
31128;SDS011;17777;48.770;8.944;2023-05-10T02:05:12;0.10;;;0.10;;
31128;SDS011;17777;48.770;8.944;2023-05-10T02:07:40;0.68;;;0.10;;
31128;SDS011;17777;48.770;8.944;2023-05-10T02:10:07;0.10;;;0.10;;
31128;SDS011;17777;48.770;8.944;2023-05-10T02:12:36;0.10;;;0.10;;
31128;SDS011;17777;48.770;8.944;2023-05-10T02:15:06;0.22;;;0.10;;
31128;SDS011;17777;48.770;8.944;2023-05-10T02:17:34;0.17;;;0.10;;
31128;SDS011;17777;48.770;8.944;2023-05-10T02:20:03;0.98;;;0.35;;
31128;SDS011;17777;48.770;8.944;2023-05-10T02:22:31;0.10;;;0.10;;
31128;SDS011;17777;48.770;8.944;2023-05-10T02:25:00;0.20;;;0.10;;
31128;SDS011;17777;48.770;8.944;2023-05-10T02:27:28;0.60;;;0.17;;
31128;SDS011;17777;48.770;8.944;2023-05-10T02:29:55;0.10;;;0.10;;
31128;SDS011;17777;48.770;8.944;2023-05-10T02:32:24;0.20;;;0.10;;
31128;SDS011;17777;48.770;8.944;2023-05-10T02:34:51;0.30;;;0.20;;
31128;SDS011;17777;48.770;8.944;2023-05-10T02:37:19;0.15;;;0.15;;
31128;SDS011;17777;48.770;8.944;2023-05-10T02:39:47;0.75;;;0.20;;
31128;SDS011;17777;48.770;8.944;2023-05-10T02:42:18;0.10;;;0.10;;
31128;SDS011;17777;48.770;8.944;2023-05-10T02:44:50;0.10;;;0.10;;
31128;SDS011;17777;48.770;8.944;2023-05-10T02:47:19;0.17;;;0.17;;
31128;SDS011;17777;48.770;8.944;2023-05-10T02:49:47;0.10;;;0.10;;
31128;SDS011;17777;48.770;8.944;2023-05-10T02:52:14;0.20;;;0.20;;
31128;SDS011;17777;48.770;8.944;2023-05-10T02:54:46;0.40;;;0.25;;
31128;SDS011;17777;48.770;8.944;2023-05-10T02:57:16;0.57;;;0.30;;
31128;SDS011;17777;48.770;8.944;2023-05-10T02:59:48;1.42;;;0.28;;
31128;SDS011;17777;48.770;8.944;2023-05-10T03:02:14;0.35;;;0.20;;
31128;SDS011;17777;48.770;8.944;2023-05-10T03:04:40;0.50;;;0.30;;
31128;SDS011;17777;48.770;8.944;2023-05-10T03:07:05;0.20;;;0.20;;
31128;SDS011;17777;48.770;8.944;2023-05-10T03:09:32;0.20;;;0.20;;
31128;SDS011;17777;48.770;8.944;2023-05-10T03:12:03;0.20;;;0.20;;
31128;SDS011;17777;48.770;8.944;2023-05-10T03:17:45;0.85;;;0.30;;
31128;SDS011;17777;48.770;8.944;2023-05-10T03:20:55;1.90;;;0.20;;
31128;SDS011;17777;48.770;8.944;2023-05-10T03:26:05;0.20;;;0.20;;
31128;SDS011;17777;48.770;8.944;2023-05-10T03:28:33;1.75;;;0.20;;
31128;SDS011;17777;48.770;8.944;2023-05-10T03:31:02;0.20;;;0.20;;
31128;SDS011;17777;48.770;8.944;2023-05-10T03:33:30;1.15;;;0.20;;
31128;SDS011;17777;48.770;8.944;2023-05-10T03:35:58;5.40;;;0.47;;
31128;SDS011;17777;48.770;8.944;2023-05-10T03:38:25;0.30;;;0.30;;
31128;SDS011;17777;48.770;8.944;2023-05-10T03:40:51;0.30;;;0.30;;
31128;SDS011;17777;48.770;8.944;2023-05-10T03:43:16;0.50;;;0.25;;
31128;SDS011;17777;48.770;8.944;2023-05-10T03:45:42;0.20;;;0.20;;
31128;SDS011;17777;48.770;8.944;2023-05-10T03:48:08;0.30;;;0.25;;
31128;SDS011;17777;48.770;8.944;2023-05-10T03:50:33;0.20;;;0.20;;
31128;SDS011;17777;48.770;8.944;2023-05-10T03:52:59;0.43;;;0.20;;
31128;SDS011;17777;48.770;8.944;2023-05-10T03:55:26;0.20;;;0.20;;
31128;SDS011;17777;48.770;8.944;2023-05-10T03:57:53;0.20;;;0.20;;
31128;SDS011;17777;48.770;8.944;2023-05-10T04:00:20;0.70;;;0.20;;
31128;SDS011;17777;48.770;8.944;2023-05-10T04:02:49;4.72;;;0.30;;
31128;SDS011;17777;48.770;8.944;2023-05-10T04:05:18;0.40;;;0.30;;
31128;SDS011;17777;48.770;8.944;2023-05-10T04:07:43;0.20;;;0.20;;
31128;SDS011;17777;48.770;8.944;2023-05-10T04:10:10;0.35;;;0.30;;
31128;SDS011;17777;48.770;8.944;2023-05-10T04:12:36;0.22;;;0.22;;
31128;SDS011;17777;48.770;8.944;2023-05-10T04:15:02;0.30;;;0.10;;
31128;SDS011;17777;48.770;8.944;2023-05-10T04:17:28;1.33;;;0.63;;
31128;SDS011;17777;48.770;8.944;2023-05-10T04:19:54;1.20;;;0.40;;
31128;SDS011;17777;48.770;8.944;2023-05-10T04:22:20;0.20;;;0.20;;
31128;SDS011;17777;48.770;8.944;2023-05-10T04:24:46;0.20;;;0.20;;
31128;SDS011;17777;48.770;8.944;2023-05-10T04:27:12;0.20;;;0.20;;
31128;SDS011;17777;48.770;8.944;2023-05-10T04:29:38;0.50;;;0.30;;
31128;SDS011;17777;48.770;8.944;2023-05-10T04:32:04;0.80;;;0.22;;
31128;SDS011;17777;48.770;8.944;2023-05-10T04:34:30;0.20;;;0.20;;
31128;SDS011;17777;48.770;8.944;2023-05-10T04:36:55;0.20;;;0.20;;
31128;SDS011;17777;48.770;8.944;2023-05-10T04:39:21;0.22;;;0.22;;
31128;SDS011;17777;48.770;8.944;2023-05-10T04:41:47;0.30;;;0.30;;
31128;SDS011;17777;48.770;8.944;2023-05-10T04:44:12;0.30;;;0.30;;
31128;SDS011;17777;48.770;8.944;2023-05-10T04:46:38;0.30;;;0.30;;
31128;SDS011;17777;48.770;8.944;2023-05-10T04:49:04;0.60;;;0.30;;
31128;SDS011;17777;48.770;8.944;2023-05-10T04:51:30;0.28;;;0.20;;
31128;SDS011;17777;48.770;8.944;2023-05-10T04:53:56;0.20;;;0.20;;
31128;SDS011;17777;48.770;8.944;2023-05-10T04:56:22;0.40;;;0.30;;
31128;SDS011;17777;48.770;8.944;2023-05-10T04:58:47;0.20;;;0.20;;
31128;SDS011;17777;48.770;8.944;2023-05-10T05:01:14;0.47;;;0.30;;
31128;SDS011;17777;48.770;8.944;2023-05-10T05:03:40;0.47;;;0.30;;
31128;SDS011;17777;48.770;8.944;2023-05-10T05:06:06;3.60;;;0.25;;
31128;SDS011;17777;48.770;8.944;2023-05-10T05:08:32;0.75;;;0.20;;
31128;SDS011;17777;48.770;8.944;2023-05-10T05:10:57;0.80;;;0.30;;
31128;SDS011;17777;48.770;8.944;2023-05-10T05:13:24;0.35;;;0.35;;
31128;SDS011;17777;48.770;8.944;2023-05-10T05:15:50;0.50;;;0.50;;
31128;SDS011;17777;48.770;8.944;2023-05-10T05:18:15;0.40;;;0.40;;
31128;SDS011;17777;48.770;8.944;2023-05-10T05:20:41;0.82;;;0.52;;
31128;SDS011;17777;48.770;8.944;2023-05-10T05:23:07;0.70;;;0.60;;
31128;SDS011;17777;48.770;8.944;2023-05-10T05:25:33;0.80;;;0.60;;
31128;SDS011;17777;48.770;8.944;2023-05-10T05:27:58;0.70;;;0.70;;
31128;SDS011;17777;48.770;8.944;2023-05-10T05:30:24;0.50;;;0.47;;
31128;SDS011;17777;48.770;8.944;2023-05-10T05:32:50;1.83;;;0.70;;
31128;SDS011;17777;48.770;8.944;2023-05-10T05:35:16;1.75;;;0.50;;
31128;SDS011;17777;48.770;8.944;2023-05-10T05:37:42;1.83;;;0.47;;
31128;SDS011;17777;48.770;8.944;2023-05-10T05:40:07;1.17;;;0.50;;
31128;SDS011;17777;48.770;8.944;2023-05-10T05:42:37;0.65;;;0.50;;
31128;SDS011;17777;48.770;8.944;2023-05-10T05:45:03;0.90;;;0.50;;
31128;SDS011;17777;48.770;8.944;2023-05-10T05:47:30;0.70;;;0.60;;
31128;SDS011;17777;48.770;8.944;2023-05-10T05:49:56;1.40;;;0.70;;
31128;SDS011;17777;48.770;8.944;2023-05-10T05:52:22;0.40;;;0.40;;
31128;SDS011;17777;48.770;8.944;2023-05-10T05:54:47;0.73;;;0.40;;
31128;SDS011;17777;48.770;8.944;2023-05-10T05:57:13;0.60;;;0.50;;
31128;SDS011;17777;48.770;8.944;2023-05-10T05:59:39;0.60;;;0.60;;
31128;SDS011;17777;48.770;8.944;2023-05-10T06:02:09;0.70;;;0.50;;
31128;SDS011;17777;48.770;8.944;2023-05-10T06:04:35;0.30;;;0.30;;
31128;SDS011;17777;48.770;8.944;2023-05-10T06:07:01;0.38;;;0.38;;
31128;SDS011;17777;48.770;8.944;2023-05-10T06:09:26;0.32;;;0.32;;
31128;SDS011;17777;48.770;8.944;2023-05-10T06:11:52;1.80;;;0.50;;
31128;SDS011;17777;48.770;8.944;2023-05-10T06:14:20;0.65;;;0.40;;
31128;SDS011;17777;48.770;8.944;2023-05-10T06:16:46;0.95;;;0.40;;
31128;SDS011;17777;48.770;8.944;2023-05-10T06:19:12;0.40;;;0.40;;
31128;SDS011;17777;48.770;8.944;2023-05-10T06:21:37;0.30;;;0.30;;
31128;SDS011;17777;48.770;8.944;2023-05-10T06:24:03;1.25;;;0.30;;
31128;SDS011;17777;48.770;8.944;2023-05-10T06:26:31;0.40;;;0.40;;
31128;SDS011;17777;48.770;8.944;2023-05-10T06:28:58;1.05;;;0.70;;
31128;SDS011;17777;48.770;8.944;2023-05-10T06:31:23;0.50;;;0.50;;
31128;SDS011;17777;48.770;8.944;2023-05-10T06:33:49;0.50;;;0.40;;
31128;SDS011;17777;48.770;8.944;2023-05-10T06:36:16;0.60;;;0.60;;
31128;SDS011;17777;48.770;8.944;2023-05-10T06:38:41;0.95;;;0.57;;
31128;SDS011;17777;48.770;8.944;2023-05-10T06:41:07;0.77;;;0.60;;
31128;SDS011;17777;48.770;8.944;2023-05-10T06:43:33;1.60;;;0.40;;
31128;SDS011;17777;48.770;8.944;2023-05-10T06:45:59;0.50;;;0.50;;
31128;SDS011;17777;48.770;8.944;2023-05-10T06:48:25;0.57;;;0.57;;
31128;SDS011;17777;48.770;8.944;2023-05-10T06:50:51;1.42;;;0.52;;
31128;SDS011;17777;48.770;8.944;2023-05-10T06:53:17;1.17;;;0.70;;
31128;SDS011;17777;48.770;8.944;2023-05-10T06:55:42;1.85;;;0.93;;
31128;SDS011;17777;48.770;8.944;2023-05-10T06:58:08;0.70;;;0.70;;
31128;SDS011;17777;48.770;8.944;2023-05-10T07:00:34;2.45;;;1.00;;
31128;SDS011;17777;48.770;8.944;2023-05-10T07:03:00;1.13;;;0.70;;
31128;SDS011;17777;48.770;8.944;2023-05-10T07:05:25;0.88;;;0.80;;
31128;SDS011;17777;48.770;8.944;2023-05-10T07:07:52;0.55;;;0.47;;
31128;SDS011;17777;48.770;8.944;2023-05-10T07:10:18;0.40;;;0.40;;
31128;SDS011;17777;48.770;8.944;2023-05-10T07:12:44;0.30;;;0.30;;
31128;SDS011;17777;48.770;8.944;2023-05-10T07:15:10;1.10;;;0.40;;
31128;SDS011;17777;48.770;8.944;2023-05-10T07:17:35;0.40;;;0.40;;
31128;SDS011;17777;48.770;8.944;2023-05-10T07:20:01;0.98;;;0.40;;
31128;SDS011;17777;48.770;8.944;2023-05-10T07:22:28;0.40;;;0.30;;
31128;SDS011;17777;48.770;8.944;2023-05-10T07:24:55;0.50;;;0.50;;
31128;SDS011;17777;48.770;8.944;2023-05-10T07:27:20;0.68;;;0.40;;
31128;SDS011;17777;48.770;8.944;2023-05-10T07:29:46;1.08;;;0.50;;
31128;SDS011;17777;48.770;8.944;2023-05-10T07:32:12;3.70;;;0.38;;
31128;SDS011;17777;48.770;8.944;2023-05-10T07:34:37;0.55;;;0.47;;
31128;SDS011;17777;48.770;8.944;2023-05-10T07:37:03;0.50;;;0.50;;
31128;SDS011;17777;48.770;8.944;2023-05-10T07:39:31;0.30;;;0.30;;
31128;SDS011;17777;48.770;8.944;2023-05-10T07:41:56;0.45;;;0.40;;
31128;SDS011;17777;48.770;8.944;2023-05-10T07:44:22;1.55;;;0.45;;
31128;SDS011;17777;48.770;8.944;2023-05-10T07:46:48;0.60;;;0.30;;
31128;SDS011;17777;48.770;8.944;2023-05-10T07:49:14;0.20;;;0.20;;
31128;SDS011;17777;48.770;8.944;2023-05-10T07:51:40;0.20;;;0.20;;
31128;SDS011;17777;48.770;8.944;2023-05-10T07:54:07;0.20;;;0.20;;
31128;SDS011;17777;48.770;8.944;2023-05-10T07:56:33;0.38;;;0.38;;
31128;SDS011;17777;48.770;8.944;2023-05-10T07:58:59;2.70;;;0.40;;
31128;SDS011;17777;48.770;8.944;2023-05-10T08:01:26;1.30;;;0.30;;
31128;SDS011;17777;48.770;8.944;2023-05-10T08:03:52;0.30;;;0.28;;
31128;SDS011;17777;48.770;8.944;2023-05-10T08:06:18;0.38;;;0.30;;
31128;SDS011;17777;48.770;8.944;2023-05-10T08:08:45;0.52;;;0.38;;
31128;SDS011;17777;48.770;8.944;2023-05-10T08:11:18;0.30;;;0.28;;
31128;SDS011;17777;48.770;8.944;2023-05-10T08:13:45;0.20;;;0.20;;
31128;SDS011;17777;48.770;8.944;2023-05-10T08:16:13;0.20;;;0.20;;
31128;SDS011;17777;48.770;8.944;2023-05-10T08:18:39;0.47;;;0.38;;
31128;SDS011;17777;48.770;8.944;2023-05-10T08:21:05;0.57;;;0.30;;
31128;SDS011;17777;48.770;8.944;2023-05-10T08:23:31;0.75;;;0.40;;
31128;SDS011;17777;48.770;8.944;2023-05-10T08:25:57;1.27;;;0.50;;
31128;SDS011;17777;48.770;8.944;2023-05-10T08:28:24;0.30;;;0.30;;
31128;SDS011;17777;48.770;8.944;2023-05-10T08:30:49;0.20;;;0.20;;
31128;SDS011;17777;48.770;8.944;2023-05-10T08:33:17;0.40;;;0.40;;
31128;SDS011;17777;48.770;8.944;2023-05-10T08:35:43;0.73;;;0.40;;
31128;SDS011;17777;48.770;8.944;2023-05-10T08:38:09;0.32;;;0.30;;
31128;SDS011;17777;48.770;8.944;2023-05-10T08:40:36;0.60;;;0.40;;
31128;SDS011;17777;48.770;8.944;2023-05-10T08:43:06;0.30;;;0.30;;
31128;SDS011;17777;48.770;8.944;2023-05-10T08:45:37;0.52;;;0.30;;
31128;SDS011;17777;48.770;8.944;2023-05-10T08:48:08;0.35;;;0.30;;
31128;SDS011;17777;48.770;8.944;2023-05-10T08:50:35;0.25;;;0.20;;
31128;SDS011;17777;48.770;8.944;2023-05-10T08:53:04;0.40;;;0.20;;
31128;SDS011;17777;48.770;8.944;2023-05-10T08:55:34;0.20;;;0.20;;
31128;SDS011;17777;48.770;8.944;2023-05-10T08:58:02;6.35;;;0.30;;
31128;SDS011;17777;48.770;8.944;2023-05-10T09:00:29;0.20;;;0.20;;
31128;SDS011;17777;48.770;8.944;2023-05-10T09:02:55;0.35;;;0.20;;
31128;SDS011;17777;48.770;8.944;2023-05-10T09:05:26;0.20;;;0.20;;
31128;SDS011;17777;48.770;8.944;2023-05-10T09:07:52;0.20;;;0.20;;
31128;SDS011;17777;48.770;8.944;2023-05-10T09:10:18;0.30;;;0.30;;
31128;SDS011;17777;48.770;8.944;2023-05-10T09:12:45;0.28;;;0.20;;
31128;SDS011;17777;48.770;8.944;2023-05-10T09:15:12;0.20;;;0.20;;
31128;SDS011;17777;48.770;8.944;2023-05-10T09:17:41;0.20;;;0.20;;
31128;SDS011;17777;48.770;8.944;2023-05-10T09:20:09;0.20;;;0.20;;
31128;SDS011;17777;48.770;8.944;2023-05-10T09:22:35;0.35;;;0.28;;
31128;SDS011;17777;48.770;8.944;2023-05-10T09:25:08;0.65;;;0.20;;
31128;SDS011;17777;48.770;8.944;2023-05-10T09:27:44;4.38;;;0.20;;
31128;SDS011;17777;48.770;8.944;2023-05-10T09:30:23;0.30;;;0.30;;
31128;SDS011;17777;48.770;8.944;2023-05-10T09:32:50;0.25;;;0.20;;
31128;SDS011;17777;48.770;8.944;2023-05-10T09:35:19;0.20;;;0.20;;
31128;SDS011;17777;48.770;8.944;2023-05-10T09:37:50;0.40;;;0.20;;
31128;SDS011;17777;48.770;8.944;2023-05-10T09:40:19;0.20;;;0.20;;
31128;SDS011;17777;48.770;8.944;2023-05-10T09:42:54;0.30;;;0.15;;
31128;SDS011;17777;48.770;8.944;2023-05-10T09:45:25;0.45;;;0.20;;
31128;SDS011;17777;48.770;8.944;2023-05-10T09:47:55;0.10;;;0.10;;
31128;SDS011;17777;48.770;8.944;2023-05-10T09:50:22;1.40;;;0.20;;
31128;SDS011;17777;48.770;8.944;2023-05-10T09:52:53;0.13;;;0.13;;
31128;SDS011;17777;48.770;8.944;2023-05-10T09:55:21;3.03;;;0.20;;
31128;SDS011;17777;48.770;8.944;2023-05-10T09:58:03;0.13;;;0.13;;
31128;SDS011;17777;48.770;8.944;2023-05-10T10:00:35;0.52;;;0.20;;
31128;SDS011;17777;48.770;8.944;2023-05-10T10:03:03;0.10;;;0.10;;
31128;SDS011;17777;48.770;8.944;2023-05-10T10:05:32;0.30;;;0.20;;
31128;SDS011;17777;48.770;8.944;2023-05-10T10:08:02;0.17;;;0.17;;
31128;SDS011;17777;48.770;8.944;2023-05-10T10:10:30;0.30;;;0.15;;
31128;SDS011;17777;48.770;8.944;2023-05-10T10:12:58;0.10;;;0.10;;
31128;SDS011;17777;48.770;8.944;2023-05-10T10:15:24;0.30;;;0.20;;
31128;SDS011;17777;48.770;8.944;2023-05-10T10:17:51;1.13;;;0.30;;
31128;SDS011;17777;48.770;8.944;2023-05-10T10:20:18;0.17;;;0.17;;
31128;SDS011;17777;48.770;8.944;2023-05-10T10:22:46;0.60;;;0.20;;
31128;SDS011;17777;48.770;8.944;2023-05-10T10:25:13;0.20;;;0.20;;
31128;SDS011;17777;48.770;8.944;2023-05-10T10:27:47;0.28;;;0.20;;
31128;SDS011;17777;48.770;8.944;2023-05-10T10:30:31;0.20;;;0.20;;
31128;SDS011;17777;48.770;8.944;2023-05-10T10:36:02;0.10;;;0.10;;
31128;SDS011;17777;48.770;8.944;2023-05-10T10:38:54;0.20;;;0.20;;
31128;SDS011;17777;48.770;8.944;2023-05-10T10:41:29;0.22;;;0.10;;
31128;SDS011;17777;48.770;8.944;2023-05-10T10:47:05;0.63;;;0.22;;
31128;SDS011;17777;48.770;8.944;2023-05-10T10:55:10;0.10;;;0.10;;
31128;SDS011;17777;48.770;8.944;2023-05-10T10:57:51;0.60;;;0.20;;
31128;SDS011;17777;48.770;8.944;2023-05-10T11:00:26;1.15;;;0.10;;
31128;SDS011;17777;48.770;8.944;2023-05-10T11:03:13;0.20;;;0.20;;
31128;SDS011;17777;48.770;8.944;2023-05-10T11:08:32;1.42;;;0.25;;
31128;SDS011;17777;48.770;8.944;2023-05-10T11:13:32;1.17;;;0.30;;
31128;SDS011;17777;48.770;8.944;2023-05-10T11:16:11;4.88;;;0.40;;
31128;SDS011;17777;48.770;8.944;2023-05-10T11:18:51;0.30;;;0.30;;
31128;SDS011;17777;48.770;8.944;2023-05-10T11:21:27;0.60;;;0.20;;
31128;SDS011;17777;48.770;8.944;2023-05-10T11:23:58;0.52;;;0.22;;
31128;SDS011;17777;48.770;8.944;2023-05-10T11:26:25;0.40;;;0.20;;
31128;SDS011;17777;48.770;8.944;2023-05-10T11:29:00;0.40;;;0.22;;
31128;SDS011;17777;48.770;8.944;2023-05-10T11:31:27;0.30;;;0.30;;
31128;SDS011;17777;48.770;8.944;2023-05-10T11:33:55;0.20;;;0.20;;
31128;SDS011;17777;48.770;8.944;2023-05-10T11:36:26;0.43;;;0.30;;
31128;SDS011;17777;48.770;8.944;2023-05-10T11:38:54;1.65;;;0.30;;
31128;SDS011;17777;48.770;8.944;2023-05-10T11:41:21;0.38;;;0.17;;
31128;SDS011;17777;48.770;8.944;2023-05-10T11:43:54;1.58;;;0.40;;
31128;SDS011;17777;48.770;8.944;2023-05-10T11:46:23;0.98;;;0.40;;
31128;SDS011;17777;48.770;8.944;2023-05-10T11:48:57;0.70;;;0.30;;
31128;SDS011;17777;48.770;8.944;2023-05-10T11:51:26;1.10;;;0.40;;
31128;SDS011;17777;48.770;8.944;2023-05-10T11:53:53;0.40;;;0.30;;
31128;SDS011;17777;48.770;8.944;2023-05-10T11:56:20;1.13;;;0.40;;
31128;SDS011;17777;48.770;8.944;2023-05-10T11:58:51;0.38;;;0.32;;
31128;SDS011;17777;48.770;8.944;2023-05-10T12:01:20;0.88;;;0.50;;
31128;SDS011;17777;48.770;8.944;2023-05-10T12:03:48;1.27;;;0.40;;
31128;SDS011;17777;48.770;8.944;2023-05-10T12:06:15;0.25;;;0.22;;
31128;SDS011;17777;48.770;8.944;2023-05-10T12:08:46;0.30;;;0.30;;
31128;SDS011;17777;48.770;8.944;2023-05-10T12:11:13;0.50;;;0.50;;
31128;SDS011;17777;48.770;8.944;2023-05-10T12:13:40;0.50;;;0.40;;
31128;SDS011;17777;48.770;8.944;2023-05-10T12:16:21;0.85;;;0.30;;
31128;SDS011;17777;48.770;8.944;2023-05-10T12:18:59;1.35;;;0.50;;
31128;SDS011;17777;48.770;8.944;2023-05-10T12:21:26;0.30;;;0.30;;
31128;SDS011;17777;48.770;8.944;2023-05-10T12:23:54;1.17;;;0.35;;
31128;SDS011;17777;48.770;8.944;2023-05-10T12:26:25;0.68;;;0.40;;
31128;SDS011;17777;48.770;8.944;2023-05-10T12:28:53;0.55;;;0.30;;
31128;SDS011;17777;48.770;8.944;2023-05-10T12:31:19;1.85;;;0.40;;
31128;SDS011;17777;48.770;8.944;2023-05-10T12:33:45;1.55;;;0.30;;
31128;SDS011;17777;48.770;8.944;2023-05-10T12:36:13;1.45;;;0.40;;
31128;SDS011;17777;48.770;8.944;2023-05-10T12:38:49;0.68;;;0.40;;
31128;SDS011;17777;48.770;8.944;2023-05-10T12:41:17;0.73;;;0.40;;
31128;SDS011;17777;48.770;8.944;2023-05-10T12:43:43;0.73;;;0.30;;
31128;SDS011;17777;48.770;8.944;2023-05-10T12:46:16;0.50;;;0.20;;
31128;SDS011;17777;48.770;8.944;2023-05-10T12:48:43;0.77;;;0.40;;
31128;SDS011;17777;48.770;8.944;2023-05-10T12:51:11;0.40;;;0.20;;
31128;SDS011;17777;48.770;8.944;2023-05-10T12:53:38;1.00;;;0.40;;
31128;SDS011;17777;48.770;8.944;2023-05-10T12:56:04;1.48;;;0.43;;
31128;SDS011;17777;48.770;8.944;2023-05-10T12:58:30;1.95;;;0.40;;
31128;SDS011;17777;48.770;8.944;2023-05-10T13:00:57;0.30;;;0.30;;
31128;SDS011;17777;48.770;8.944;2023-05-10T13:03:23;1.65;;;0.50;;
31128;SDS011;17777;48.770;8.944;2023-05-10T13:05:49;0.90;;;0.40;;
31128;SDS011;17777;48.770;8.944;2023-05-10T13:08:15;0.75;;;0.38;;
31128;SDS011;17777;48.770;8.944;2023-05-10T13:10:41;0.40;;;0.30;;
31128;SDS011;17777;48.770;8.944;2023-05-10T13:13:07;0.90;;;0.40;;
31128;SDS011;17777;48.770;8.944;2023-05-10T13:15:33;0.35;;;0.22;;
31128;SDS011;17777;48.770;8.944;2023-05-10T13:17:59;0.45;;;0.38;;
31128;SDS011;17777;48.770;8.944;2023-05-10T13:20:25;1.50;;;0.40;;
31128;SDS011;17777;48.770;8.944;2023-05-10T13:22:52;0.45;;;0.32;;
31128;SDS011;17777;48.770;8.944;2023-05-10T13:25:18;0.82;;;0.40;;
31128;SDS011;17777;48.770;8.944;2023-05-10T13:27:44;0.63;;;0.30;;
31128;SDS011;17777;48.770;8.944;2023-05-10T13:30:10;0.28;;;0.28;;
31128;SDS011;17777;48.770;8.944;2023-05-10T13:32:36;0.68;;;0.30;;
31128;SDS011;17777;48.770;8.944;2023-05-10T13:35:03;1.15;;;0.30;;
31128;SDS011;17777;48.770;8.944;2023-05-10T13:37:30;0.50;;;0.30;;
31128;SDS011;17777;48.770;8.944;2023-05-10T13:39:57;0.40;;;0.30;;
31128;SDS011;17777;48.770;8.944;2023-05-10T13:42:22;0.25;;;0.20;;
31128;SDS011;17777;48.770;8.944;2023-05-10T13:44:49;0.70;;;0.32;;
31128;SDS011;17777;48.770;8.944;2023-05-10T13:47:15;0.30;;;0.30;;
31128;SDS011;17777;48.770;8.944;2023-05-10T13:49:41;0.80;;;0.50;;
31128;SDS011;17777;48.770;8.944;2023-05-10T13:52:07;1.20;;;0.50;;
31128;SDS011;17777;48.770;8.944;2023-05-10T13:54:35;1.90;;;0.30;;
31128;SDS011;17777;48.770;8.944;2023-05-10T13:57:02;0.32;;;0.30;;
31128;SDS011;17777;48.770;8.944;2023-05-10T13:59:28;0.75;;;0.20;;
31128;SDS011;17777;48.770;8.944;2023-05-10T14:01:56;0.20;;;0.20;;
31128;SDS011;17777;48.770;8.944;2023-05-10T14:04:23;0.47;;;0.22;;
31128;SDS011;17777;48.770;8.944;2023-05-10T14:06:49;0.30;;;0.30;;
31128;SDS011;17777;48.770;8.944;2023-05-10T14:09:15;0.30;;;0.20;;
31128;SDS011;17777;48.770;8.944;2023-05-10T14:11:41;0.88;;;0.40;;
31128;SDS011;17777;48.770;8.944;2023-05-10T14:14:08;0.40;;;0.20;;
31128;SDS011;17777;48.770;8.944;2023-05-10T14:16:34;0.57;;;0.30;;
31128;SDS011;17777;48.770;8.944;2023-05-10T14:19:00;0.47;;;0.30;;
31128;SDS011;17777;48.770;8.944;2023-05-10T14:21:26;0.80;;;0.30;;
31128;SDS011;17777;48.770;8.944;2023-05-10T14:23:54;0.55;;;0.35;;
31128;SDS011;17777;48.770;8.944;2023-05-10T14:26:20;0.35;;;0.22;;
31128;SDS011;17777;48.770;8.944;2023-05-10T14:28:47;0.75;;;0.40;;
31128;SDS011;17777;48.770;8.944;2023-05-10T14:31:12;0.28;;;0.20;;
31128;SDS011;17777;48.770;8.944;2023-05-10T14:33:39;0.82;;;0.22;;
31128;SDS011;17777;48.770;8.944;2023-05-10T14:36:05;0.40;;;0.20;;
31128;SDS011;17777;48.770;8.944;2023-05-10T14:38:32;0.95;;;0.30;;
31128;SDS011;17777;48.770;8.944;2023-05-10T14:40:58;0.30;;;0.30;;
31128;SDS011;17777;48.770;8.944;2023-05-10T14:43:23;2.30;;;0.43;;
31128;SDS011;17777;48.770;8.944;2023-05-10T14:45:49;0.73;;;0.50;;
31128;SDS011;17777;48.770;8.944;2023-05-10T14:48:15;0.63;;;0.30;;
31128;SDS011;17777;48.770;8.944;2023-05-10T14:50:42;0.47;;;0.40;;
31128;SDS011;17777;48.770;8.944;2023-05-10T14:53:09;0.20;;;0.20;;
31128;SDS011;17777;48.770;8.944;2023-05-10T14:55:35;0.65;;;0.30;;
31128;SDS011;17777;48.770;8.944;2023-05-10T14:58:01;1.30;;;0.50;;
31128;SDS011;17777;48.770;8.944;2023-05-10T15:00:29;0.77;;;0.40;;
31128;SDS011;17777;48.770;8.944;2023-05-10T15:02:55;0.70;;;0.40;;
31128;SDS011;17777;48.770;8.944;2023-05-10T15:05:21;0.40;;;0.30;;
31128;SDS011;17777;48.770;8.944;2023-05-10T15:07:47;0.63;;;0.32;;
31128;SDS011;17777;48.770;8.944;2023-05-10T15:10:14;0.32;;;0.30;;
31128;SDS011;17777;48.770;8.944;2023-05-10T15:12:40;0.90;;;0.40;;
31128;SDS011;17777;48.770;8.944;2023-05-10T15:15:06;0.77;;;0.20;;
31128;SDS011;17777;48.770;8.944;2023-05-10T15:17:32;0.20;;;0.20;;
31128;SDS011;17777;48.770;8.944;2023-05-10T15:19:59;0.28;;;0.20;;
31128;SDS011;17777;48.770;8.944;2023-05-10T15:22:28;0.52;;;0.25;;
31128;SDS011;17777;48.770;8.944;2023-05-10T15:24:55;0.35;;;0.20;;
31128;SDS011;17777;48.770;8.944;2023-05-10T15:27:20;0.50;;;0.20;;
31128;SDS011;17777;48.770;8.944;2023-05-10T15:29:46;0.10;;;0.10;;
31128;SDS011;17777;48.770;8.944;2023-05-10T15:32:12;1.08;;;0.30;;
31128;SDS011;17777;48.770;8.944;2023-05-10T15:34:38;0.13;;;0.13;;